Time;durP1;ratioP1;P1;durP2;ratioP2;P2;SDS_P1;SDS_P2;PMS_P1;PMS_P2;Temp;Humidity;BMP_temperature;BMP_pressure;BME280_temperature;BME280_humidity;BME280_pressure;Samples;Min_cycle;Max_cycle;Signal;HPM_P1;HPM_P2
2023/10/21 00:00:23;;;;;;;58.25;39.97;;;10.90;99.90;;;;;;2075522;28;20032;-72
2023/10/21 00:01:24;;;;;;;54.22;38.55;;;10.90;99.90;;;;;;2083152;28;20029;-72
2023/10/21 00:02:26;;;;;;;56.72;39.17;;;10.90;99.90;;;;;;2083313;28;20033;-72
2023/10/21 00:03:26;;;;;;;55.10;38.30;;;10.90;99.90;;;;;;2075722;28;20088;-72
2023/10/21 00:04:27;;;;;;;59.00;38.85;;;10.90;99.90;;;;;;2075235;28;20116;-72
2023/10/21 00:05:27;;;;;;;59.80;40.30;;;10.90;99.90;;;;;;2081154;28;20050;-71
2023/10/21 00:06:28;;;;;;;57.15;40.70;;;10.90;99.90;;;;;;2075388;28;20029;-71
2023/10/21 00:07:28;;;;;;;63.05;41.80;;;10.90;99.90;;;;;;2074805;28;20080;-72
2023/10/21 00:08:29;;;;;;;68.05;44.30;;;10.90;99.90;;;;;;2074693;28;20026;-72
2023/10/21 00:09:30;;;;;;;69.88;46.58;;;10.80;99.90;;;;;;2075949;28;20113;-72
2023/10/21 00:10:30;;;;;;;64.25;43.05;;;10.80;99.90;;;;;;2082982;28;20032;-72
2023/10/21 00:11:31;;;;;;;66.38;43.40;;;10.70;99.90;;;;;;2074772;28;20136;-72
2023/10/21 00:12:35;;;;;;;60.17;42.60;;;10.70;99.90;;;;;;2075705;28;20547;-72
2023/10/21 00:13:36;;;;;;;64.55;43.13;;;10.70;99.90;;;;;;2082233;28;20052;-73
2023/10/21 00:14:36;;;;;;;65.00;42.67;;;10.70;99.90;;;;;;2086253;28;20509;-72
2023/10/21 00:15:37;;;;;;;61.53;41.85;;;10.60;99.90;;;;;;2077678;28;20116;-72
2023/10/21 00:16:38;;;;;;;62.65;41.90;;;10.60;99.90;;;;;;2084198;28;20039;-73
2023/10/21 00:17:38;;;;;;;61.28;41.08;;;10.60;99.90;;;;;;2082357;28;20020;-72
2023/10/21 00:18:39;;;;;;;65.32;42.67;;;10.60;99.90;;;;;;2078104;28;20159;-73
2023/10/21 00:19:39;;;;;;;67.88;42.47;;;10.70;99.90;;;;;;2080368;28;20037;-73
2023/10/21 00:20:40;;;;;;;69.55;44.13;;;10.60;99.90;;;;;;2083332;28;20037;-73
2023/10/21 00:21:40;;;;;;;74.15;44.80;;;10.60;99.90;;;;;;2078584;28;20124;-73
2023/10/21 00:22:41;;;;;;;75.00;46.45;;;10.60;99.90;;;;;;2079927;28;20090;-73
2023/10/21 00:23:41;;;;;;;68.35;44.08;;;10.70;99.90;;;;;;2082450;28;20071;-73
2023/10/21 00:24:42;;;;;;;63.17;43.25;;;10.70;99.90;;;;;;2075870;28;20602;-72
2023/10/21 00:25:42;;;;;;;68.65;44.80;;;10.70;99.90;;;;;;2078078;28;20481;-72
2023/10/21 00:26:48;;;;;;;69.75;44.95;;;10.70;99.90;;;;;;2079264;28;20041;-72
2023/10/21 00:27:48;;;;;;;67.70;44.78;;;10.70;99.90;;;;;;2075292;28;20039;-72
2023/10/21 00:28:49;;;;;;;67.22;45.08;;;10.70;99.90;;;;;;2075927;28;20930;-72
2023/10/21 00:29:50;;;;;;;69.28;46.13;;;10.70;99.90;;;;;;2074643;28;20527;-72
2023/10/21 00:30:50;;;;;;;67.00;45.30;;;10.70;99.90;;;;;;2080880;28;20029;-72
2023/10/21 00:31:51;;;;;;;63.33;42.95;;;10.70;99.90;;;;;;2077760;28;20810;-72
2023/10/21 00:32:51;;;;;;;58.80;41.53;;;10.70;99.90;;;;;;2078122;28;20037;-72
2023/10/21 00:33:52;;;;;;;62.72;42.20;;;10.60;99.90;;;;;;2082041;28;20489;-72
2023/10/21 00:34:52;;;;;;;61.88;42.75;;;10.60;99.90;;;;;;2077192;28;20029;-72
2023/10/21 00:35:53;;;;;;;60.50;41.38;;;10.60;99.90;;;;;;2083319;28;20033;-72
2023/10/21 00:36:53;;;;;;;62.58;41.28;;;10.60;99.90;;;;;;2074518;28;20049;-72
2023/10/21 00:37:54;;;;;;;68.00;42.22;;;10.60;99.90;;;;;;2066316;28;20026;-72
2023/10/21 00:38:55;;;;;;;111.25;58.42;;;10.60;99.90;;;;;;2073533;28;20029;-72
2023/10/21 00:39:55;;;;;;;90.13;50.13;;;10.60;99.90;;;;;;2066403;28;20029;-73
2023/10/21 00:40:56;;;;;;;102.03;53.75;;;10.50;99.90;;;;;;2074546;28;20029;-73
2023/10/21 00:41:57;;;;;;;104.45;54.75;;;10.50;99.90;;;;;;2082401;28;20029;-73
2023/10/21 00:42:58;;;;;;;77.82;46.45;;;10.50;99.90;;;;;;2081825;28;20502;-73
2023/10/21 00:43:58;;;;;;;81.85;49.10;;;10.50;99.90;;;;;;2074975;28;20523;-72
2023/10/21 00:45:01;;;;;;;95.50;53.47;;;10.50;99.90;;;;;;2082920;28;20603;-72
2023/10/21 00:46:11;;;;;;;113.50;58.05;;;10.50;99.90;;;;;;2082600;28;20032;-72
2023/10/21 00:47:11;;;;;;;120.45;59.45;;;10.50;99.90;;;;;;2071751;28;20034;-72
2023/10/21 00:48:12;;;;;;;119.55;59.40;;;10.50;99.90;;;;;;2079591;28;20032;-73
2023/10/21 00:49:13;;;;;;;126.53;61.47;;;10.40;99.90;;;;;;2082565;28;20739;-73
2023/10/21 00:50:14;;;;;;;128.70;62.05;;;10.40;99.90;;;;;;2077793;28;20061;-72
2023/10/21 00:51:15;;;;;;;120.78;61.03;;;10.40;99.90;;;;;;2079156;28;20029;-72
2023/10/21 00:52:16;;;;;;;95.35;52.38;;;10.40;99.90;;;;;;2082159;28;20036;-73
2023/10/21 00:53:16;;;;;;;97.18;52.88;;;10.40;99.90;;;;;;2073398;28;20034;-73
2023/10/21 00:54:17;;;;;;;65.85;41.75;;;10.40;99.90;;;;;;2075971;28;20021;-73
2023/10/21 00:55:18;;;;;;;58.08;40.80;;;10.40;99.90;;;;;;2076860;28;20129;-73
2023/10/21 00:56:18;;;;;;;60.80;42.03;;;10.50;99.90;;;;;;2075981;28;21050;-73
2023/10/21 00:57:19;;;;;;;58.70;41.58;;;10.50;99.90;;;;;;2067622;28;20831;-73
2023/10/21 00:58:21;;;;;;;59.78;40.85;;;10.50;99.90;;;;;;2073892;28;20041;-73
2023/10/21 00:59:23;;;;;;;69.50;43.90;;;10.50;99.90;;;;;;2072010;28;20442;-74
2023/10/21 01:00:24;;;;;;;73.45;47.17;;;10.50;99.90;;;;;;2075961;28;20067;-73
2023/10/21 01:01:24;;;;;;;72.88;45.45;;;10.50;99.90;;;;;;2075023;28;20150;-73
2023/10/21 01:02:25;;;;;;;62.97;41.83;;;10.50;99.90;;;;;;2080594;28;20117;-73
2023/10/21 01:03:26;;;;;;;61.72;41.45;;;10.50;99.90;;;;;;2075580;28;20539;-74
2023/10/21 01:04:27;;;;;;;65.95;42.65;;;10.50;99.90;;;;;;2081710;28;20112;-73
2023/10/21 01:05:27;;;;;;;71.50;45.40;;;10.50;99.90;;;;;;2076612;28;20028;-72
2023/10/21 01:06:28;;;;;;;66.15;43.08;;;10.50;99.90;;;;;;2075911;28;20021;-73
2023/10/21 01:07:33;;;;;;;67.32;42.92;;;10.60;99.90;;;;;;2083227;28;20021;-73
2023/10/21 01:08:41;;;;;;;62.70;41.70;;;10.50;99.90;;;;;;2082241;28;20024;-73
2023/10/21 01:09:42;;;;;;;61.33;41.08;;;10.50;99.90;;;;;;2067068;28;20466;-73
2023/10/21 01:10:43;;;;;;;59.55;40.53;;;10.50;99.90;;;;;;2068178;28;20058;-74
2023/10/21 01:11:43;;;;;;;58.72;40.25;;;10.50;99.90;;;;;;2068266;28;20378;-74
2023/10/21 01:12:44;;;;;;;61.67;42.05;;;10.50;99.90;;;;;;2077555;28;20036;-74
2023/10/21 01:13:45;;;;;;;63.08;42.42;;;10.60;99.90;;;;;;2082171;28;20586;-73
2023/10/21 01:14:46;;;;;;;60.53;41.53;;;10.60;99.90;;;;;;2082739;28;20074;-73
2023/10/21 01:15:46;;;;;;;64.75;41.92;;;10.60;99.90;;;;;;2082567;28;20024;-73
2023/10/21 01:16:47;;;;;;;62.00;41.55;;;10.60;99.90;;;;;;2074344;28;20037;-73
2023/10/21 01:17:49;;;;;;;64.28;42.00;;;10.60;99.90;;;;;;2075005;28;20017;-73
2023/10/21 01:18:51;;;;;;;56.90;39.92;;;10.60;99.90;;;;;;2074841;28;21107;-73
2023/10/21 01:19:51;;;;;;;62.50;41.28;;;10.50;99.90;;;;;;2075050;28;20623;-73
2023/10/21 01:20:52;;;;;;;59.75;40.25;;;10.50;99.90;;;;;;2075027;28;20022;-73
2023/10/21 01:21:53;;;;;;;58.70;40.10;;;10.50;99.90;;;;;;2075157;28;20025;-73
2023/10/21 01:22:56;;;;;;;62.45;40.22;;;10.40;99.90;;;;;;2080553;28;20523;-73
2023/10/21 01:23:57;;;;;;;57.95;40.28;;;10.40;99.90;;;;;;2082472;28;20102;-73
2023/10/21 01:25:01;;;;;;;65.45;43.00;;;10.40;99.90;;;;;;2078307;28;20524;-73
2023/10/21 01:26:02;;;;;;;59.55;41.08;;;10.40;99.90;;;;;;2086970;28;20036;-73
2023/10/21 01:27:03;;;;;;;60.35;40.15;;;10.40;99.90;;;;;;2074375;28;20033;-73
2023/10/21 01:28:04;;;;;;;64.60;41.47;;;10.30;99.90;;;;;;2081689;28;20029;-72
2023/10/21 01:29:10;;;;;;;61.83;41.05;;;10.40;99.90;;;;;;2082361;28;20016;-73
2023/10/21 01:30:11;;;;;;;62.97;42.08;;;10.40;99.90;;;;;;2068458;28;20042;-73
2023/10/21 01:31:11;;;;;;;60.40;40.60;;;10.40;99.90;;;;;;2071386;28;20033;-73
2023/10/21 01:32:12;;;;;;;60.15;40.20;;;10.50;99.90;;;;;;2084194;28;20454;-72
2023/10/21 01:33:12;;;;;;;55.88;39.28;;;10.50;99.90;;;;;;2083675;28;20120;-73
2023/10/21 01:34:13;;;;;;;59.67;41.05;;;10.60;99.90;;;;;;2084929;28;20036;-73
2023/10/21 01:35:15;;;;;;;61.58;40.60;;;10.60;99.90;;;;;;2084734;28;20035;-73
2023/10/21 01:36:17;;;;;;;58.78;41.17;;;10.50;99.90;;;;;;2077661;28;20030;-73
2023/10/21 01:37:17;;;;;;;59.78;41.25;;;10.60;99.90;;;;;;2078158;28;20033;-73
2023/10/21 01:38:18;;;;;;;59.70;41.72;;;10.60;99.90;;;;;;2082197;28;20036;-73
2023/10/21 01:39:19;;;;;;;61.65;41.83;;;10.60;99.90;;;;;;2065907;28;20037;-73
2023/10/21 01:40:19;;;;;;;62.40;42.00;;;10.60;99.90;;;;;;2066017;28;20026;-73
2023/10/21 01:41:20;;;;;;;61.33;42.13;;;10.60;99.90;;;;;;2067583;28;20076;-72
2023/10/21 01:42:20;;;;;;;61.15;41.70;;;10.50;99.90;;;;;;2074212;28;20526;-72
2023/10/21 01:43:21;;;;;;;60.97;41.85;;;10.50;99.90;;;;;;2073991;28;20261;-72
2023/10/21 01:44:21;;;;;;;62.22;40.60;;;10.60;99.90;;;;;;2074273;28;20072;-71
2023/10/21 01:45:23;;;;;;;63.00;42.17;;;10.50;99.90;;;;;;2073942;28;20026;-72
2023/10/21 01:46:25;;;;;;;63.83;41.78;;;10.50;99.90;;;;;;2066392;28;20026;-72
2023/10/21 01:47:26;;;;;;;62.95;42.70;;;10.60;99.90;;;;;;2070924;28;20054;-72
2023/10/21 01:48:27;;;;;;;61.38;40.97;;;10.60;99.90;;;;;;2066480;28;20025;-72
2023/10/21 01:49:27;;;;;;;63.33;42.22;;;10.60;99.90;;;;;;2084866;28;20330;-72
2023/10/21 01:50:28;;;;;;;62.85;42.30;;;10.60;99.90;;;;;;2085638;28;20382;-72
2023/10/21 01:51:29;;;;;;;69.88;42.53;;;10.60;99.90;;;;;;2082024;28;20049;-72
2023/10/21 01:52:30;;;;;;;59.75;40.85;;;10.60;99.90;;;;;;2082917;28;20031;-72
2023/10/21 01:53:31;;;;;;;57.47;40.50;;;10.50;99.90;;;;;;2082389;28;20040;-72
2023/10/21 01:54:32;;;;;;;57.30;39.38;;;10.50;99.90;;;;;;2074865;28;20493;-72
2023/10/21 01:55:33;;;;;;;60.80;40.08;;;10.50;99.90;;;;;;2082856;28;20025;-72
2023/10/21 01:56:34;;;;;;;58.45;41.05;;;10.50;99.90;;;;;;2080328;28;20029;-72
2023/10/21 01:57:35;;;;;;;56.90;40.08;;;10.50;99.90;;;;;;2074114;28;20116;-73
2023/10/21 01:58:36;;;;;;;60.92;40.75;;;10.50;99.90;;;;;;2065947;28;20133;-72
2023/10/21 01:59:40;;;;;;;58.75;40.75;;;10.50;99.90;;;;;;2074289;28;20570;-73
2023/10/21 02:00:41;;;;;;;56.08;39.92;;;10.50;99.90;;;;;;2074066;28;20488;-72
2023/10/21 02:01:41;;;;;;;60.72;41.10;;;10.50;99.90;;;;;;2066067;28;20037;-72
2023/10/21 02:02:42;;;;;;;60.95;40.40;;;10.50;99.90;;;;;;2071395;28;20029;-73
2023/10/21 02:03:42;;;;;;;56.13;39.33;;;10.50;99.90;;;;;;2075286;28;20028;-73
2023/10/21 02:04:43;;;;;;;57.80;39.83;;;10.50;99.90;;;;;;2069341;28;20061;-73
2023/10/21 02:05:44;;;;;;;56.25;38.97;;;10.50;99.90;;;;;;2058262;28;20141;-73
2023/10/21 02:06:44;;;;;;;57.90;39.72;;;10.50;99.90;;;;;;2073811;28;20614;-73
2023/10/21 02:07:46;;;;;;;60.50;39.58;;;10.60;99.90;;;;;;2083707;28;20013;-73
2023/10/21 02:08:46;;;;;;;56.05;38.67;;;10.60;99.90;;;;;;2076201;28;20025;-73
2023/10/21 02:09:48;;;;;;;59.28;38.72;;;10.60;99.90;;;;;;2081880;28;20131;-74
2023/10/21 02:10:48;;;;;;;54.70;38.20;;;10.60;99.90;;;;;;2082101;28;20028;-73
2023/10/21 02:11:49;;;;;;;55.67;37.60;;;10.50;99.90;;;;;;2077955;28;20431;-72
2023/10/21 02:12:50;;;;;;;55.97;39.03;;;10.50;99.90;;;;;;2074067;28;20412;-72
2023/10/21 02:13:50;;;;;;;62.20;39.40;;;10.50;99.90;;;;;;2073958;28;21012;-79
2023/10/21 02:14:51;;;;;;;53.55;38.72;;;10.50;99.90;;;;;;2064227;28;20107;-79
2023/10/21 02:15:51;;;;;;;58.50;40.03;;;10.50;99.90;;;;;;2067495;28;20022;-79
2023/10/21 02:16:53;;;;;;;54.55;36.88;;;10.50;99.90;;;;;;2074136;28;20534;-79
2023/10/21 02:17:53;;;;;;;55.10;37.83;;;10.50;99.90;;;;;;2075564;28;20029;-79
2023/10/21 02:18:54;;;;;;;55.15;37.60;;;10.50;99.90;;;;;;2075406;28;20060;-78
2023/10/21 02:19:58;;;;;;;54.00;36.90;;;10.50;99.90;;;;;;2078166;28;20030;-79
2023/10/21 02:20:58;;;;;;;53.17;37.50;;;10.50;99.90;;;;;;2073533;28;20029;-80
2023/10/21 02:21:59;;;;;;;54.17;37.42;;;10.50;99.90;;;;;;2078944;28;20029;-79
2023/10/21 02:23:00;;;;;;;53.72;37.47;;;10.50;99.90;;;;;;2082804;28;20151;-79
2023/10/21 02:24:01;;;;;;;53.30;38.63;;;10.50;99.90;;;;;;2081535;28;20028;-78
2023/10/21 02:25:01;;;;;;;54.92;38.30;;;10.50;99.90;;;;;;2074914;28;20642;-78
2023/10/21 02:26:06;;;;;;;55.55;38.13;;;10.50;99.90;;;;;;2075819;28;20143;-79
2023/10/21 02:27:07;;;;;;;57.00;39.40;;;10.60;99.90;;;;;;2079745;28;20041;-79
2023/10/21 02:28:09;;;;;;;56.33;38.95;;;10.60;99.90;;;;;;2076364;28;20029;-79
2023/10/21 02:29:10;;;;;;;55.65;38.78;;;10.60;99.90;;;;;;2087098;28;20675;-79
2023/10/21 02:30:14;;;;;;;55.97;38.60;;;10.50;99.90;;;;;;2084669;28;20067;-79
2023/10/21 02:31:15;;;;;;;60.63;39.17;;;10.50;99.90;;;;;;2080727;28;20025;-79
2023/10/21 02:32:16;;;;;;;62.05;39.42;;;10.50;99.90;;;;;;2070806;28;20042;-79
2023/10/21 02:33:17;;;;;;;65.20;41.33;;;10.50;99.90;;;;;;2074879;28;20060;-80
2023/10/21 02:34:18;;;;;;;61.72;40.72;;;10.60;99.90;;;;;;2073437;28;20030;-79
2023/10/21 02:35:19;;;;;;;57.72;39.50;;;10.60;99.90;;;;;;2085439;28;20068;-81
2023/10/21 02:36:19;;;;;;;69.35;43.55;;;10.60;99.90;;;;;;2082959;28;20037;-80
2023/10/21 02:37:22;;;;;;;68.40;42.33;;;10.60;99.90;;;;;;2086569;28;20016;-80
2023/10/21 02:38:23;;;;;;;62.45;39.75;;;10.60;99.90;;;;;;2086455;28;20699;-79
2023/10/21 02:39:24;;;;;;;65.13;41.00;;;10.60;99.90;;;;;;2080906;28;20025;-78
2023/10/21 02:40:24;;;;;;;65.10;41.40;;;10.60;99.90;;;;;;2081407;28;20527;-79
2023/10/21 02:41:25;;;;;;;66.90;42.45;;;10.70;99.90;;;;;;2084940;28;20102;-79
2023/10/21 02:42:26;;;;;;;73.70;43.58;;;10.70;99.90;;;;;;2081853;28;20032;-79
2023/10/21 02:43:27;;;;;;;82.97;47.75;;;10.70;99.90;;;;;;2078040;28;20068;-79
2023/10/21 02:44:27;;;;;;;82.43;49.17;;;10.70;99.90;;;;;;2076480;28;20018;-79
2023/10/21 02:45:28;;;;;;;82.45;48.60;;;10.70;99.90;;;;;;2078778;28;20068;-79
2023/10/21 02:46:28;;;;;;;77.72;46.67;;;10.70;99.90;;;;;;2089196;28;20048;-79
2023/10/21 02:47:29;;;;;;;70.00;42.17;;;10.70;99.90;;;;;;2077594;28;20034;-79
2023/10/21 02:48:30;;;;;;;69.78;43.47;;;10.70;99.90;;;;;;2079536;28;20031;-79
2023/10/21 02:49:30;;;;;;;66.10;42.10;;;10.70;99.90;;;;;;2077127;28;20460;-81
2023/10/21 02:50:31;;;;;;;65.95;41.58;;;10.70;99.90;;;;;;2080076;28;20514;-79
2023/10/21 02:51:32;;;;;;;68.53;44.42;;;10.70;99.90;;;;;;2071546;28;20116;-79
2023/10/21 02:52:36;;;;;;;78.30;47.42;;;10.70;99.90;;;;;;2083696;28;20036;-79
2023/10/21 02:53:37;;;;;;;65.70;41.83;;;10.70;99.90;;;;;;2079774;28;20040;-78
2023/10/21 02:54:38;;;;;;;70.97;43.30;;;10.70;99.90;;;;;;2079339;28;20033;-79
2023/10/21 02:55:38;;;;;;;66.55;42.05;;;10.70;99.90;;;;;;2080390;28;20078;-79
2023/10/21 02:56:43;;;;;;;74.32;45.00;;;10.70;99.90;;;;;;2079701;28;20049;-79
2023/10/21 02:57:44;;;;;;;75.45;46.42;;;10.70;99.90;;;;;;2085031;28;20052;-79
2023/10/21 02:58:44;;;;;;;72.25;45.45;;;10.70;99.90;;;;;;2081165;28;20049;-79
2023/10/21 02:59:45;;;;;;;73.30;44.45;;;10.70;99.90;;;;;;2067426;28;20045;-79
2023/10/21 03:00:47;;;;;;;72.97;45.63;;;10.70;99.90;;;;;;2070449;28;20025;-79
2023/10/21 03:01:48;;;;;;;73.57;44.72;;;10.70;99.90;;;;;;2067610;28;20032;-80
2023/10/21 03:02:49;;;;;;;77.25;46.88;;;10.70;99.90;;;;;;2075557;28;20063;-80
2023/10/21 03:03:51;;;;;;;68.03;42.25;;;10.70;99.90;;;;;;2076327;28;20025;-79
2023/10/21 03:04:51;;;;;;;68.43;42.42;;;10.60;99.90;;;;;;2082341;28;20103;-79
2023/10/21 03:05:52;;;;;;;70.18;43.90;;;10.70;99.90;;;;;;2079227;28;20072;-79
2023/10/21 03:06:53;;;;;;;69.47;42.53;;;10.60;99.90;;;;;;2075390;28;20041;-79
2023/10/21 03:07:53;;;;;;;65.60;42.08;;;10.60;99.90;;;;;;2075973;28;20029;-79
2023/10/21 03:08:54;;;;;;;67.90;42.83;;;10.60;99.90;;;;;;2078802;28;20030;-80
2023/10/21 03:09:54;;;;;;;65.05;41.90;;;10.60;99.90;;;;;;2081537;28;20465;-80
2023/10/21 03:10:55;;;;;;;71.72;44.28;;;10.60;99.90;;;;;;2079168;28;20022;-79
2023/10/21 03:11:56;;;;;;;68.78;43.50;;;10.60;99.90;;;;;;2077760;28;20404;-79
2023/10/21 03:12:57;;;;;;;60.53;40.28;;;10.60;99.90;;;;;;2086674;28;20032;-80
2023/10/21 03:13:57;;;;;;;64.95;40.65;;;10.60;99.90;;;;;;2085511;28;20032;-79
2023/10/21 03:15:00;;;;;;;65.10;41.97;;;10.50;99.90;;;;;;2084063;28;20031;-80
2023/10/21 03:16:09;;;;;;;63.45;40.88;;;10.50;99.90;;;;;;2076792;28;20676;-80
2023/10/21 03:17:09;;;;;;;67.53;41.20;;;10.50;99.90;;;;;;2080786;28;20081;-79
2023/10/21 03:18:10;;;;;;;63.83;40.75;;;10.50;99.90;;;;;;2084920;28;20626;-80
2023/10/21 03:19:10;;;;;;;67.03;41.20;;;10.50;99.90;;;;;;2083390;28;20057;-81
2023/10/21 03:20:11;;;;;;;64.97;39.70;;;10.50;99.90;;;;;;2076086;28;20100;-80
2023/10/21 03:21:12;;;;;;;65.25;41.50;;;10.50;99.90;;;;;;2083528;28;20047;-79
2023/10/21 03:22:12;;;;;;;59.38;38.72;;;10.50;99.90;;;;;;2076757;28;20030;-80
2023/10/21 03:23:13;;;;;;;63.33;39.95;;;10.50;99.90;;;;;;2082644;28;20025;-80
2023/10/21 03:24:14;;;;;;;72.30;44.55;;;10.50;99.90;;;;;;2083370;28;20104;-81
2023/10/21 03:25:14;;;;;;;73.00;44.50;;;10.50;99.90;;;;;;2068047;28;20033;-79
2023/10/21 03:26:15;;;;;;;71.90;44.22;;;10.50;99.90;;;;;;2073586;28;20036;-80
2023/10/21 03:27:15;;;;;;;65.35;40.88;;;10.50;99.90;;;;;;2072973;28;20057;-80
2023/10/21 03:28:16;;;;;;;62.65;40.83;;;10.50;99.90;;;;;;2067167;28;20131;-80
2023/10/21 03:29:16;;;;;;;65.18;42.15;;;10.40;99.90;;;;;;2079253;28;20039;-79
2023/10/21 03:30:17;;;;;;;69.20;42.40;;;10.40;99.90;;;;;;2076863;28;20034;-80
2023/10/21 03:31:18;;;;;;;64.03;40.90;;;10.40;99.90;;;;;;2077824;28;20485;-80
2023/10/21 03:32:18;;;;;;;68.30;40.70;;;10.40;99.90;;;;;;2067384;28;20029;-80
2023/10/21 03:33:19;;;;;;;69.13;44.65;;;10.40;99.90;;;;;;2075457;28;20743;-80
2023/10/21 03:34:19;;;;;;;66.22;42.88;;;10.40;99.90;;;;;;2083863;28;20536;-79
2023/10/21 03:35:20;;;;;;;64.88;41.80;;;10.40;99.90;;;;;;2083522;28;20622;-80
2023/10/21 03:36:21;;;;;;;66.32;44.38;;;10.40;99.90;;;;;;2079280;28;20536;-81
2023/10/21 03:37:21;;;;;;;71.85;46.35;;;10.40;99.90;;;;;;2083230;28;20039;-80
2023/10/21 03:38:22;;;;;;;69.18;44.53;;;10.40;99.90;;;;;;2067105;28;20121;-80
2023/10/21 03:39:23;;;;;;;75.15;45.42;;;10.30;99.90;;;;;;2075142;28;20632;-80
2023/10/21 03:40:27;;;;;;;77.28;46.25;;;10.40;99.90;;;;;;2075170;28;20029;-80
2023/10/21 03:41:27;;;;;;;68.88;42.67;;;10.40;99.90;;;;;;2083429;28;20025;-80
2023/10/21 03:42:30;;;;;;;63.55;41.47;;;10.30;99.90;;;;;;2082423;28;20032;-80
2023/10/21 03:43:31;;;;;;;65.13;42.17;;;10.30;99.90;;;;;;2081063;28;20079;-80
2023/10/21 03:44:32;;;;;;;67.82;42.97;;;10.30;99.90;;;;;;2075425;28;20040;-80
2023/10/21 03:45:32;;;;;;;65.85;41.40;;;10.20;99.90;;;;;;2087287;28;20033;-80
2023/10/21 03:46:33;;;;;;;68.90;42.67;;;10.20;99.90;;;;;;2081613;28;20031;-82
2023/10/21 03:47:34;;;;;;;70.80;43.38;;;10.20;99.90;;;;;;2076421;28;20025;-80
2023/10/21 03:48:35;;;;;;;66.82;41.55;;;10.20;99.90;;;;;;2083154;28;20017;-80
2023/10/21 03:49:36;;;;;;;65.28;40.80;;;10.20;99.90;;;;;;2074768;28;20075;-79
2023/10/21 03:50:37;;;;;;;69.85;42.63;;;10.10;99.90;;;;;;2071038;28;20052;-77
2023/10/21 03:51:38;;;;;;;68.20;42.95;;;10.10;99.90;;;;;;2083042;28;20039;-78
2023/10/21 03:52:39;;;;;;;73.78;44.13;;;10.20;99.90;;;;;;2082806;28;20017;-79
2023/10/21 03:53:41;;;;;;;85.68;48.78;;;10.20;99.90;;;;;;2074989;28;20057;-77
2023/10/21 03:54:42;;;;;;;143.70;45.72;;;10.20;99.90;;;;;;2082865;28;20146;-78
2023/10/21 03:55:43;;;;;;;68.25;42.33;;;10.30;99.90;;;;;;2083896;28;20021;-79
2023/10/21 03:56:44;;;;;;;71.38;43.25;;;10.20;99.90;;;;;;2076218;28;20068;-79
2023/10/21 03:57:44;;;;;;;76.72;45.08;;;10.20;99.90;;;;;;2081539;28;20099;-80
2023/10/21 03:58:45;;;;;;;88.15;50.80;;;10.20;99.90;;;;;;2083470;28;20043;-79
2023/10/21 03:59:46;;;;;;;82.05;48.17;;;10.40;99.90;;;;;;2077003;28;20033;-80
2023/10/21 04:00:47;;;;;;;78.13;45.30;;;10.40;99.90;;;;;;2077911;28;20101;-79
2023/10/21 04:01:47;;;;;;;78.13;46.22;;;10.30;99.90;;;;;;2084242;28;20085;-79
2023/10/21 04:02:48;;;;;;;87.78;49.47;;;10.30;99.90;;;;;;2080042;28;21089;-79
2023/10/21 04:03:49;;;;;;;95.45;51.88;;;10.40;99.90;;;;;;2088053;28;20032;-79
2023/10/21 04:04:49;;;;;;;90.70;50.25;;;10.40;99.90;;;;;;2081103;28;20025;-79
2023/10/21 04:05:50;;;;;;;83.82;48.58;;;10.40;99.90;;;;;;2086251;28;20379;-79
2023/10/21 04:06:51;;;;;;;77.95;46.90;;;10.40;99.90;;;;;;2074736;28;20511;-79
2023/10/21 04:07:51;;;;;;;86.55;48.85;;;10.40;99.90;;;;;;2069664;28;20030;-79
2023/10/21 04:08:52;;;;;;;79.50;47.20;;;10.40;99.90;;;;;;2082455;28;20044;-80
2023/10/21 04:09:52;;;;;;;90.50;49.88;;;10.40;99.90;;;;;;2086563;28;20025;-79
2023/10/21 04:10:54;;;;;;;87.57;48.30;;;10.40;99.90;;;;;;2081300;28;20029;-79
2023/10/21 04:11:55;;;;;;;105.13;54.38;;;10.40;99.90;;;;;;2079878;28;20032;-79
2023/10/21 04:12:55;;;;;;;109.35;55.85;;;10.50;99.90;;;;;;2083586;28;20024;-79
2023/10/21 04:13:56;;;;;;;102.53;53.95;;;10.60;99.90;;;;;;2080686;28;20104;-79
2023/10/21 04:14:56;;;;;;;104.47;55.53;;;10.60;99.90;;;;;;2078573;28;20021;-79
2023/10/21 04:15:59;;;;;;;109.82;56.50;;;10.60;99.90;;;;;;2084203;28;20017;-79
2023/10/21 04:16:59;;;;;;;102.97;53.42;;;10.60;99.90;;;;;;2076855;28;20042;-79
2023/10/21 04:18:00;;;;;;;101.35;53.72;;;10.60;99.90;;;;;;2080908;28;20121;-79
2023/10/21 04:19:01;;;;;;;186.35;81.65;;;10.60;99.90;;;;;;2081454;28;20042;-80
2023/10/21 04:20:03;;;;;;;137.45;64.93;;;10.60;99.90;;;;;;2078603;28;20060;-79
2023/10/21 04:21:04;;;;;;;137.18;63.40;;;10.70;99.90;;;;;;2080313;28;20041;-79
2023/10/21 04:22:04;;;;;;;161.40;73.70;;;10.70;99.90;;;;;;2076763;28;20041;-80
2023/10/21 04:23:05;;;;;;;168.18;79.43;;;10.70;99.90;;;;;;2076289;28;20036;-80
2023/10/21 04:24:06;;;;;;;198.57;95.95;;;10.70;99.90;;;;;;2082466;28;20041;-79
2023/10/21 04:25:08;;;;;;;136.52;66.07;;;10.70;99.90;;;;;;2080219;28;20037;-79
2023/10/21 04:26:08;;;;;;;137.20;65.93;;;10.70;99.90;;;;;;2076237;28;20053;-79
2023/10/21 04:27:09;;;;;;;118.90;60.13;;;10.70;99.90;;;;;;2083987;28;20140;-79
2023/10/21 04:28:10;;;;;;;120.82;60.35;;;10.70;99.90;;;;;;2076475;28;20090;-79
2023/10/21 04:29:12;;;;;;;116.25;59.22;;;10.60;99.90;;;;;;2076736;28;20026;-80
2023/10/21 04:30:12;;;;;;;106.57;56.13;;;10.70;99.90;;;;;;2078097;28;20048;-79
2023/10/21 04:31:13;;;;;;;104.78;54.35;;;10.60;99.90;;;;;;2084652;28;20054;-78
2023/10/21 04:32:13;;;;;;;106.88;55.92;;;10.60;99.90;;;;;;2093444;28;20059;-79
2023/10/21 04:33:15;;;;;;;108.88;55.90;;;10.60;99.90;;;;;;2085695;28;20211;-77
2023/10/21 04:34:15;;;;;;;111.28;57.28;;;10.50;99.90;;;;;;2081085;28;20038;-78
2023/10/21 04:35:16;;;;;;;106.85;56.92;;;10.50;99.90;;;;;;2093700;28;20067;-78
2023/10/21 04:36:18;;;;;;;107.82;58.03;;;10.50;99.90;;;;;;2085947;28;20022;-78
2023/10/21 04:37:18;;;;;;;115.95;59.45;;;10.40;99.90;;;;;;2082971;28;20029;-78
2023/10/21 04:38:19;;;;;;;112.55;58.55;;;10.40;99.90;;;;;;2086205;28;20041;-80
2023/10/21 04:39:19;;;;;;;107.80;57.05;;;10.40;99.90;;;;;;2076861;28;20167;-79
2023/10/21 04:40:20;;;;;;;108.00;57.28;;;10.50;99.90;;;;;;2085437;28;20498;-80
2023/10/21 04:41:21;;;;;;;114.55;57.90;;;10.40;99.90;;;;;;2074794;28;20038;-79
2023/10/21 04:42:23;;;;;;;104.93;56.67;;;10.50;99.90;;;;;;2076419;28;20104;-79
2023/10/21 04:43:23;;;;;;;103.50;54.85;;;10.40;99.90;;;;;;2083523;28;20036;-82
2023/10/21 04:44:24;;;;;;;111.05;56.78;;;10.40;99.90;;;;;;2086050;28;20035;-79
2023/10/21 04:45:24;;;;;;;110.97;57.22;;;10.40;99.90;;;;;;2075049;28;20120;-80
2023/10/21 04:46:25;;;;;;;106.03;56.70;;;10.50;99.90;;;;;;2077424;28;20087;-80
2023/10/21 04:47:26;;;;;;;103.90;55.33;;;10.50;99.90;;;;;;2088155;28;20040;-80
2023/10/21 04:48:26;;;;;;;113.78;56.55;;;10.50;99.90;;;;;;2074620;28;20098;-80
2023/10/21 04:49:27;;;;;;;117.22;57.33;;;10.50;99.90;;;;;;2074929;28;20156;-80
2023/10/21 04:50:28;;;;;;;102.45;55.05;;;10.50;99.90;;;;;;2083393;28;20051;-79
2023/10/21 04:51:28;;;;;;;99.13;52.85;;;10.40;99.90;;;;;;2079329;28;20037;-81
2023/10/21 04:52:29;;;;;;;101.07;52.67;;;10.40;99.90;;;;;;2079008;28;20029;-80
2023/10/21 04:53:30;;;;;;;103.32;54.78;;;10.40;99.90;;;;;;2077631;28;20575;-80
2023/10/21 04:54:30;;;;;;;99.70;53.65;;;10.50;99.90;;;;;;2082636;28;20028;-78
2023/10/21 04:55:31;;;;;;;92.35;50.60;;;10.40;99.90;;;;;;2079504;28;20607;-80
2023/10/21 04:56:31;;;;;;;90.95;50.67;;;10.40;99.90;;;;;;2079157;28;20030;-80
2023/10/21 04:57:32;;;;;;;90.85;50.75;;;10.40;99.90;;;;;;2081433;28;20440;-80
2023/10/21 04:58:32;;;;;;;99.70;52.17;;;10.40;99.90;;;;;;2079394;28;20636;-81
2023/10/21 04:59:33;;;;;;;104.13;55.60;;;10.30;99.90;;;;;;2082102;28;20036;-80
2023/10/21 05:00:34;;;;;;;99.13;51.22;;;10.40;99.90;;;;;;2082646;28;20577;-80
2023/10/21 05:01:35;;;;;;;98.78;51.70;;;10.40;99.90;;;;;;2078432;28;20535;-80
2023/10/21 05:02:35;;;;;;;100.22;52.47;;;10.30;99.90;;;;;;2083163;28;20040;-81
2023/10/21 05:03:37;;;;;;;101.53;53.15;;;10.30;99.90;;;;;;2083994;28;20117;-79
2023/10/21 05:04:38;;;;;;;93.13;51.17;;;10.30;99.90;;;;;;2081602;28;20021;-80
2023/10/21 05:05:39;;;;;;;92.07;50.30;;;10.30;99.90;;;;;;2073493;28;20105;-82
2023/10/21 05:06:39;;;;;;;95.43;51.03;;;10.30;99.90;;;;;;2083330;28;20033;-82
2023/10/21 05:07:40;;;;;;;95.45;51.80;;;10.30;99.90;;;;;;2076302;28;20053;-81
2023/10/21 05:08:41;;;;;;;97.22;52.13;;;10.30;99.90;;;;;;2083037;28;20022;-81